This is the latest recevied weather packets stored in our database for station/object WA6ODQ-13. If no packets are shown the sender has not sent any weather packets the latest 10 day(s).
| Time | Temp. | Humidity | Pressure | Rain* | Wind** | Luminosity | Snow |
|---|---|---|---|---|---|---|---|
| 1787944254 | 22.22° C | 60% | 1013.2 hPa | 0 mm | - | 214 W/m² | - |
| 1787943953 | 22.22° C | 61% | 1013.3 hPa | 0 mm | - | 227 W/m² | - |
| 1787943649 | 21.67° C | 62% | 1013.4 hPa | 0 mm | - | 245 W/m² | - |
| 1787943348 | 21.67° C | 62% | 1013.3 hPa | 0 mm | - | 249 W/m² | - |
| 1787943044 | 21.11° C | 64% | 1013.5 hPa | 0 mm | - | 261 W/m² | - |
| 1787942744 | 20.56° C | 66% | 1013.6 hPa | 0 mm | - | 234 W/m² | - |
| 1787942438 | 20.56° C | 66% | 1013.4 hPa | 0 mm | - | 249 W/m² | - |
| 1787942133 | 20° C | 68% | 1013.5 hPa | 0 mm | - | 208 W/m² | - |
| 1787941829 | 20° C | 68% | 1013.5 hPa | 0 mm | - | 169 W/m² | - |
| 1787941527 | 20° C | 67% | 1013.5 hPa | 0 mm | - | 157 W/m² | - |
| 1787941222 | 20.56° C | 66% | 1013.5 hPa | 0 mm | - | 149 W/m² | - |
| 1787940916 | 20° C | 66% | 1013.2 hPa | 0 mm | - | 167 W/m² | - |
| 1787940614 | 20° C | 65% | 1013.4 hPa | 0 mm | - | 170 W/m² | - |
| 1787940308 | 20° C | 66% | 1013.6 hPa | 0 mm | - | 163 W/m² | - |
| 1787940008 | 20.56° C | 65% | 1013.3 hPa | 0 mm | - | 166 W/m² | - |
| 1787939702 | 21.67° C | 60% | 1013.3 hPa | 0 mm | - | 173 W/m² | - |
| 1787939402 | 21.67° C | 58% | 1012.9 hPa | 0 mm | - | 169 W/m² | - |
| 1787939097 | 22.22° C | 54% | 1012.9 hPa | 0 mm | - | 158 W/m² | - |
| 1787938796 | 23.33° C | 50% | 1012.8 hPa | 0 mm | - | 149 W/m² | - |
| 1787938492 | 23.89° C | 45% | 1012.8 hPa | 0 mm | - | 132 W/m² | - |
| 1787938187 | 25° C | 41% | 1012.6 hPa | 0 mm | - | 155 W/m² | - |
| 1787937882 | 25.56° C | 33% | 1012.3 hPa | 0 mm | - | 176 W/m² | - |
| 1787937578 | 25.56° C | 32% | 1012.4 hPa | 0 mm | - | 175 W/m² | - |
| 1787937273 | 25.56° C | 33% | 1012.2 hPa | 0 mm | - | 168 W/m² | - |
| 1787936969 | 25° C | 33% | 1012.2 hPa | 0 mm | - | 166 W/m² | - |
* Rain latest hour (hover to see other rain measurements)
** Current wind speed in m/s (hover to see current wind gust speed)